createdAt,value
2018-05-26T00:00:30.324Z,13.43
2018-05-26T00:03:03.898Z,13.30
2018-05-26T00:05:36.876Z,13.45
2018-05-26T00:08:09.397Z,13.05
2018-05-26T00:10:41.832Z,14.18
2018-05-26T00:13:14.675Z,14.10
2018-05-26T00:15:47.368Z,14.52
2018-05-26T00:18:19.988Z,14.27
2018-05-26T00:20:52.402Z,13.40
2018-05-26T00:23:28.932Z,13.50
2018-05-26T00:26:01.468Z,14.65
2018-05-26T00:28:34.394Z,13.95
2018-05-26T00:31:07.128Z,13.27
2018-05-26T00:33:40.616Z,13.90
2018-05-26T00:36:13.084Z,14.00
2018-05-26T00:38:45.468Z,14.90
2018-05-26T00:41:18.187Z,13.95
2018-05-26T00:43:50.730Z,14.93
2018-05-26T00:46:23.497Z,14.87
2018-05-26T00:48:56.207Z,14.57
2018-05-26T00:51:29.488Z,15.45
2018-05-26T00:54:03.657Z,14.83
2018-05-26T00:56:36.208Z,15.65
2018-05-26T00:59:08.858Z,15.23
2018-05-26T01:01:41.384Z,15.60
2018-05-26T01:04:14.131Z,16.03
2018-05-26T01:06:47.544Z,15.13
2018-05-26T01:09:20.895Z,15.43
2018-05-26T01:11:53.604Z,16.90
2018-05-26T01:14:27.093Z,16.43
2018-05-26T01:16:59.704Z,16.83
2018-05-26T01:19:32.281Z,16.00
2018-05-26T01:22:05.023Z,16.37
2018-05-26T01:24:38.094Z,15.48
2018-05-26T01:27:11.307Z,15.07
2018-05-26T01:29:43.887Z,15.77
2018-05-26T01:32:16.562Z,15.87
2018-05-26T01:34:49.064Z,15.38
2018-05-26T01:37:21.829Z,15.37
2018-05-26T01:39:54.393Z,15.50
2018-05-26T01:42:27.903Z,15.98
2018-05-26T01:45:01.109Z,17.30
2018-05-26T01:47:34.044Z,16.97
2018-05-26T01:50:06.575Z,16.23
2018-05-26T01:52:39.483Z,16.37
2018-05-26T01:55:12.295Z,16.93
2018-05-26T01:57:45.325Z,15.82
2018-05-26T02:00:17.867Z,16.67
2018-05-26T02:02:50.804Z,16.73
2018-05-26T02:05:24.319Z,16.47
2018-05-26T02:07:56.786Z,16.57
2018-05-26T02:10:29.403Z,15.82
2018-05-26T02:13:02.522Z,16.37
2018-05-26T02:15:35.650Z,16.33
2018-05-26T02:18:08.796Z,15.03
2018-05-26T02:20:41.823Z,16.73
2018-05-26T02:23:14.314Z,16.40
2018-05-26T02:25:47.596Z,18.90
2018-05-26T02:28:22.261Z,19.27
2018-05-26T02:30:55.659Z,18.40
2018-05-26T02:33:28.910Z,18.87
2018-05-26T02:36:02.101Z,19.50
2018-05-26T02:38:36.495Z,18.53
2018-05-26T02:41:09.978Z,18.30
2018-05-26T02:43:43.862Z,19.33
2018-05-26T02:46:16.555Z,19.23
2018-05-26T02:48:52.599Z,19.73
2018-05-26T02:51:25.307Z,18.80
2018-05-26T02:53:57.756Z,17.80
2018-05-26T02:56:35.373Z,18.63
2018-05-26T02:59:07.825Z,17.73
2018-05-26T03:01:40.512Z,17.90
2018-05-26T03:04:12.987Z,17.50
2018-05-26T03:06:51.597Z,17.60
2018-05-26T03:09:30.113Z,17.83
2018-05-26T03:12:08.497Z,17.73
2018-05-26T03:14:46.737Z,18.17
2018-05-26T03:17:38.253Z,16.73
2018-05-26T03:20:11.048Z,19.10
2018-05-26T03:22:43.547Z,17.40
2018-05-26T03:25:16.896Z,18.50
2018-05-26T03:27:49.518Z,16.47
2018-05-26T03:30:22.062Z,17.30
2018-05-26T03:32:54.622Z,19.37
2018-05-26T03:35:27.351Z,19.70
2018-05-26T03:37:59.946Z,18.97
2018-05-26T03:40:32.453Z,18.03
2018-05-26T03:43:05.687Z,18.37
2018-05-26T03:45:38.215Z,19.43
2018-05-26T03:48:11.068Z,18.87
2018-05-26T03:50:43.584Z,17.90
2018-05-26T03:53:16.136Z,16.57
2018-05-26T03:56:01.084Z,17.23
2018-05-26T03:58:45.838Z,17.33
2018-05-26T04:01:19.097Z,18.10
2018-05-26T04:03:51.647Z,17.00
2018-05-26T04:06:24.273Z,17.93
2018-05-26T04:08:57.932Z,16.63
2018-05-26T04:11:31.292Z,18.40
2018-05-26T04:14:04.836Z,17.00
2018-05-26T04:16:37.291Z,17.80
2018-05-26T04:19:09.873Z,17.50
2018-05-26T04:21:42.307Z,16.93
2018-05-26T04:24:16.262Z,17.07
2018-05-26T04:26:49.488Z,16.43
2018-05-26T04:29:21.876Z,16.27
2018-05-26T04:31:55.165Z,15.47
2018-05-26T04:34:28.827Z,16.10
2018-05-26T04:37:01.247Z,17.27
2018-05-26T04:39:33.872Z,16.67
2018-05-26T04:42:07.082Z,15.87
2018-05-26T04:44:39.566Z,15.73
2018-05-26T04:47:12.125Z,15.77
2018-05-26T04:49:44.706Z,15.23
2018-05-26T04:52:17.183Z,15.43
2018-05-26T04:54:50.513Z,14.10
2018-05-26T04:57:23.077Z,14.07
2018-05-26T04:59:55.887Z,13.63
2018-05-26T05:02:29.147Z,12.10
2018-05-26T05:05:02.293Z,12.57
2018-05-26T05:07:36.471Z,11.67
2018-05-26T05:10:08.936Z,11.30
2018-05-26T05:12:41.548Z,12.03
2018-05-26T05:15:14.067Z,11.27
2018-05-26T05:17:46.924Z,11.43
2018-05-26T05:20:19.549Z,11.07
2018-05-26T05:22:54.598Z,10.73
2018-05-26T05:25:27.388Z,10.88
2018-05-26T05:28:00.542Z,10.37
2018-05-26T05:30:33.238Z,10.80
2018-05-26T05:33:06.497Z,10.25
2018-05-26T05:35:39.848Z,10.45
2018-05-26T05:38:12.272Z,9.73
2018-05-26T05:40:45.489Z,10.25
2018-05-26T05:43:18.280Z,9.25
2018-05-26T05:45:50.852Z,9.68
2018-05-26T05:48:23.698Z,9.38
2018-05-26T05:50:57.407Z,9.80
2018-05-26T05:53:31.804Z,9.20
2018-05-26T05:56:04.533Z,9.13
2018-05-26T05:58:37.057Z,8.60
2018-05-26T06:01:10.820Z,8.35
2018-05-26T06:03:44.182Z,9.05
2018-05-26T06:06:16.808Z,8.73
2018-05-26T06:08:49.328Z,8.73
2018-05-26T06:11:28.988Z,8.63
2018-05-26T06:14:02.393Z,8.45
2018-05-26T06:16:35.110Z,8.35
2018-05-26T06:19:07.548Z,8.45
2018-05-26T06:21:40.536Z,8.43
2018-05-26T06:24:13.982Z,9.18
2018-05-26T06:26:47.297Z,8.73
2018-05-26T06:29:19.983Z,8.65
2018-05-26T06:31:53.294Z,8.77
2018-05-26T06:34:25.885Z,8.70
2018-05-26T06:36:58.592Z,8.73
2018-05-26T06:39:31.274Z,8.38
2018-05-26T06:42:03.925Z,9.15
2018-05-26T06:44:36.695Z,8.35
2018-05-26T06:47:09.377Z,8.73
2018-05-26T06:49:41.727Z,8.93
2018-05-26T06:52:14.482Z,9.23
2018-05-26T06:54:48.539Z,8.07
2018-05-26T06:57:21.771Z,10.98
2018-05-26T06:59:54.984Z,8.70
2018-05-26T07:02:27.860Z,7.80
2018-05-26T07:05:00.986Z,7.90
2018-05-26T07:07:33.662Z,7.78
2018-05-26T07:10:06.439Z,8.10
2018-05-26T07:12:39.283Z,7.97
2018-05-26T07:15:12.077Z,8.48
2018-05-26T07:17:44.813Z,7.93
2018-05-26T07:20:17.582Z,9.77
2018-05-26T07:22:50.437Z,8.15
2018-05-26T07:25:24.183Z,7.87
2018-05-26T07:27:57.759Z,8.23
2018-05-26T07:30:30.395Z,7.32
2018-05-26T07:33:03.119Z,7.10
2018-05-26T07:35:39.227Z,7.22
2018-05-26T07:38:11.783Z,7.30
2018-05-26T07:43:23.076Z,6.75
2018-05-26T07:45:57.116Z,6.80
2018-05-26T07:48:29.849Z,6.22
2018-05-26T07:51:02.452Z,6.50
2018-05-26T07:53:39.067Z,6.22
2018-05-26T07:56:12.430Z,6.50
2018-05-26T07:58:45.954Z,5.80
2018-05-26T08:01:18.638Z,6.32
2018-05-26T08:03:51.340Z,7.50
2018-05-26T08:06:23.894Z,6.68
2018-05-26T08:08:56.457Z,6.90
2018-05-26T08:14:07.994Z,5.97
2018-05-26T08:16:41.971Z,6.07
2018-05-26T08:19:14.550Z,6.25
2018-05-26T08:21:46.965Z,5.90
2018-05-26T08:24:24.003Z,6.28
2018-05-26T08:26:57.413Z,6.30
2018-05-26T08:29:29.821Z,6.18
2018-05-26T08:34:42.220Z,6.60
2018-05-26T08:37:15.169Z,5.85
2018-05-26T08:39:49.086Z,5.68
2018-05-26T08:42:21.599Z,5.03
2018-05-26T08:44:54.467Z,6.43
2018-05-26T08:47:27.223Z,4.62
2018-05-26T08:50:00.504Z,4.78
2018-05-26T08:52:32.919Z,4.47
2018-05-26T08:55:05.432Z,4.30
2018-05-26T08:57:41.289Z,4.10
2018-05-26T09:00:13.873Z,4.50
2018-05-26T09:02:46.304Z,4.45
2018-05-26T09:05:19.178Z,4.53
2018-05-26T09:07:51.696Z,4.40
2018-05-26T09:10:24.835Z,4.10
2018-05-26T09:12:57.353Z,4.45
2018-05-26T09:15:30.060Z,4.47
2018-05-26T09:18:03.034Z,4.50
2018-05-26T09:20:35.370Z,4.78
2018-05-26T09:23:08.259Z,4.37
2018-05-26T09:25:42.459Z,3.90
2018-05-26T09:28:15.394Z,4.30
2018-05-26T09:30:47.913Z,4.40
2018-05-26T09:33:23.981Z,4.60
2018-05-26T09:35:56.405Z,4.37
2018-05-26T09:38:28.865Z,4.18
2018-05-26T09:41:01.564Z,4.32
2018-05-26T09:43:34.256Z,4.37
2018-05-26T09:46:06.871Z,4.37
2018-05-26T09:48:39.418Z,4.78
2018-05-26T09:51:12.501Z,4.60
2018-05-26T09:53:44.924Z,4.00
2018-05-26T09:56:17.268Z,4.65
2018-05-26T09:58:49.736Z,4.80
2018-05-26T10:01:22.349Z,4.50
2018-05-26T10:03:54.853Z,4.47
2018-05-26T10:06:29.064Z,4.70
2018-05-26T10:09:02.670Z,4.57
2018-05-26T10:11:35.011Z,4.60
2018-05-26T10:14:08.268Z,4.93
2018-05-26T10:16:40.864Z,4.40
2018-05-26T10:19:13.426Z,4.45
2018-05-26T10:21:46.389Z,4.12
2018-05-26T10:24:19.565Z,4.65
2018-05-26T10:26:53.315Z,4.50
2018-05-26T10:29:26.559Z,4.55
2018-05-26T10:31:58.926Z,4.72
2018-05-26T10:34:31.675Z,4.40
2018-05-26T10:37:04.184Z,4.40
2018-05-26T10:39:37.843Z,4.50
2018-05-26T10:42:10.599Z,4.50
2018-05-26T10:44:43.399Z,4.30
2018-05-26T10:47:16.821Z,4.80
2018-05-26T10:49:50.174Z,4.50
2018-05-26T10:52:22.656Z,4.75
2018-05-26T10:54:55.326Z,4.80
2018-05-26T10:57:28.559Z,4.93
2018-05-26T11:00:01.118Z,4.47
2018-05-26T11:02:33.784Z,4.40
2018-05-26T11:05:06.879Z,4.47
2018-05-26T11:07:46.935Z,4.70
2018-05-26T11:10:19.714Z,4.60
2018-05-26T11:12:53.905Z,4.57
2018-05-26T11:15:27.435Z,4.60
2018-05-26T11:18:07.471Z,4.25
2018-05-26T11:20:40.861Z,4.10
2018-05-26T11:23:14.967Z,4.43
2018-05-26T11:25:47.939Z,4.20
2018-05-26T11:28:21.074Z,3.90
2018-05-26T11:30:53.710Z,4.28
2018-05-26T11:33:26.359Z,4.40
2018-05-26T11:35:59.305Z,4.20
2018-05-26T11:38:33.051Z,3.60
2018-05-26T11:41:06.019Z,3.65
2018-05-26T11:43:38.837Z,3.67
2018-05-26T11:46:11.394Z,3.85
2018-05-26T11:51:22.768Z,3.97
2018-05-26T11:53:55.326Z,4.12
2018-05-26T11:56:28.314Z,4.30
2018-05-26T11:59:01.505Z,4.07
2018-05-26T12:01:34.003Z,4.10
2018-05-26T12:04:06.664Z,3.92
2018-05-26T12:06:40.022Z,3.83
2018-05-26T12:09:12.875Z,4.10
2018-05-26T12:11:45.569Z,4.05
2018-05-26T12:14:18.084Z,4.10
2018-05-26T12:16:50.632Z,3.92
2018-05-26T12:19:23.425Z,4.22
2018-05-26T12:22:03.138Z,3.78
2018-05-26T12:24:37.006Z,3.80
2018-05-26T12:27:09.652Z,4.07
2018-05-26T12:29:46.709Z,4.12
2018-05-26T12:32:19.626Z,3.90
2018-05-26T12:34:55.822Z,3.70
2018-05-26T12:37:28.323Z,4.68
2018-05-26T12:40:01.140Z,4.03
2018-05-26T12:42:34.748Z,3.90
2018-05-26T12:45:07.349Z,4.90
2018-05-26T12:47:41.495Z,6.60
2018-05-26T12:50:14.049Z,5.70
2018-05-26T12:52:46.572Z,4.00
2018-05-26T12:55:19.185Z,4.35
2018-05-26T12:57:52.573Z,4.10
2018-05-26T13:00:25.861Z,3.90
2018-05-26T13:02:59.159Z,4.00
2018-05-26T13:05:32.467Z,4.03
2018-05-26T13:08:05.092Z,4.03
2018-05-26T13:10:37.778Z,4.32
2018-05-26T13:13:10.584Z,4.00
2018-05-26T13:15:43.175Z,3.95
2018-05-26T13:18:16.376Z,4.12
2018-05-26T13:20:48.915Z,4.00
2018-05-26T13:23:22.326Z,4.35
2018-05-26T13:25:54.796Z,3.87
2018-05-26T13:28:27.999Z,4.15
2018-05-26T13:31:00.484Z,4.20
2018-05-26T13:33:32.953Z,5.20
2018-05-26T13:36:05.840Z,3.70
2018-05-26T13:38:38.259Z,6.85
2018-05-26T13:41:14.669Z,5.28
2018-05-26T13:43:47.200Z,4.07
2018-05-26T13:46:19.801Z,4.00
2018-05-26T13:48:52.295Z,4.00
2018-05-26T13:51:25.674Z,4.20
2018-05-26T13:53:58.824Z,4.12
2018-05-26T13:56:33.094Z,4.50
2018-05-26T13:59:05.980Z,5.30
2018-05-26T14:01:39.119Z,4.57
2018-05-26T14:04:12.252Z,3.60
2018-05-26T14:06:45.423Z,3.80
2018-05-26T14:09:17.973Z,3.60
2018-05-26T14:11:50.775Z,4.20
2018-05-26T14:14:23.219Z,4.10
2018-05-26T14:16:56.604Z,4.10
2018-05-26T14:19:30.109Z,4.15
2018-05-26T14:22:03.518Z,3.75
2018-05-26T14:24:36.275Z,5.40
2018-05-26T14:27:09.084Z,4.65
2018-05-26T14:29:42.504Z,4.45
2018-05-26T14:32:15.759Z,3.85
2018-05-26T14:34:48.340Z,4.22
2018-05-26T14:37:21.205Z,4.15
2018-05-26T14:39:54.148Z,3.87
2018-05-26T14:42:27.118Z,4.25
2018-05-26T14:45:01.162Z,4.30
2018-05-26T14:47:34.384Z,3.97
2018-05-26T14:50:06.812Z,3.90
2018-05-26T14:52:39.450Z,3.95
2018-05-26T14:55:11.935Z,3.92
2018-05-26T14:57:44.909Z,3.90
2018-05-26T15:00:17.489Z,4.10
2018-05-26T15:02:50.207Z,4.50
2018-05-26T15:05:23.512Z,3.70
2018-05-26T15:07:56.310Z,3.90
2018-05-26T15:10:29.398Z,4.20
2018-05-26T15:13:02.265Z,4.00
2018-05-26T15:15:34.984Z,4.37
2018-05-26T15:18:07.881Z,4.85
2018-05-26T15:20:40.421Z,4.90
2018-05-26T15:23:12.854Z,4.45
2018-05-26T15:25:45.684Z,4.22
2018-05-26T15:28:18.459Z,4.43
2018-05-26T15:30:51.663Z,4.40
2018-05-26T15:33:24.794Z,5.37
2018-05-26T15:35:57.419Z,4.45
2018-05-26T15:38:31.118Z,4.40
2018-05-26T15:41:03.943Z,4.32
2018-05-26T15:43:39.970Z,4.40
2018-05-26T15:46:12.715Z,4.35
2018-05-26T15:48:45.568Z,4.60
2018-05-26T15:51:18.620Z,4.97
2018-05-26T15:53:51.046Z,5.00
2018-05-26T15:56:23.745Z,4.25
2018-05-26T15:58:57.795Z,4.55
2018-05-26T16:01:30.464Z,7.95
2018-05-26T16:04:03.174Z,4.80
2018-05-26T16:06:36.455Z,3.95
2018-05-26T16:09:08.953Z,4.62
2018-05-26T16:11:41.654Z,4.40
2018-05-26T16:14:14.495Z,5.18
2018-05-26T16:16:47.878Z,4.93
2018-05-26T16:19:20.468Z,6.60
2018-05-26T16:21:53.297Z,7.28
2018-05-26T16:24:25.824Z,5.78
2018-05-26T16:26:58.391Z,5.82
2018-05-26T16:29:30.857Z,5.95
2018-05-26T16:32:05.019Z,5.93
2018-05-26T16:34:37.923Z,5.70
2018-05-26T16:37:10.288Z,5.97
2018-05-26T16:39:43.506Z,5.65
2018-05-26T16:42:16.105Z,5.72
2018-05-26T16:44:50.249Z,6.07
2018-05-26T16:47:26.619Z,5.80
2018-05-26T16:49:59.839Z,5.40
2018-05-26T16:52:32.360Z,5.60
2018-05-26T16:55:04.750Z,5.40
2018-05-26T16:57:37.300Z,5.80
2018-05-26T17:00:10.451Z,5.95
2018-05-26T17:02:43.642Z,5.68
2018-05-26T17:05:16.305Z,5.28
2018-05-26T17:07:48.754Z,5.85
2018-05-26T17:10:21.969Z,5.47
2018-05-26T17:12:55.124Z,5.37
2018-05-26T17:15:28.311Z,6.05
2018-05-26T17:18:01.078Z,6.00
2018-05-26T17:20:33.813Z,5.80
2018-05-26T17:23:07.234Z,6.47
2018-05-26T17:25:41.441Z,6.00
2018-05-26T17:28:14.102Z,6.05
2018-05-26T17:30:46.816Z,5.93
2018-05-26T17:33:19.388Z,5.37
2018-05-26T17:35:52.713Z,6.25
2018-05-26T17:38:25.256Z,6.05
2018-05-26T17:40:57.944Z,5.90
2018-05-26T17:43:30.486Z,5.57
2018-05-26T17:46:03.355Z,8.70
2018-05-26T17:48:36.775Z,6.87
2018-05-26T17:51:09.239Z,11.52
2018-05-26T17:53:42.670Z,7.93
2018-05-26T17:56:19.147Z,6.72
2018-05-26T17:58:51.703Z,7.50
2018-05-26T18:01:24.475Z,6.62
2018-05-26T18:03:57.222Z,8.13
2018-05-26T18:06:30.575Z,6.95
2018-05-26T18:09:03.235Z,6.43
2018-05-26T18:11:37.611Z,6.50
2018-05-26T18:14:10.724Z,6.30
2018-05-26T18:16:43.199Z,6.22
2018-05-26T18:19:16.360Z,6.30
2018-05-26T18:21:53.335Z,6.18
2018-05-26T18:24:30.041Z,6.35
2018-05-26T18:27:03.569Z,6.30
2018-05-26T18:29:36.180Z,6.43
2018-05-26T18:32:09.176Z,6.87
2018-05-26T18:34:42.204Z,6.07
2018-05-26T18:37:14.890Z,6.87
2018-05-26T18:39:48.276Z,6.15
2018-05-26T18:42:20.932Z,6.35
2018-05-26T18:44:53.464Z,6.68
2018-05-26T18:47:26.229Z,6.70
2018-05-26T18:49:59.714Z,6.60
2018-05-26T18:52:32.202Z,6.50
2018-05-26T18:55:04.959Z,5.75
2018-05-26T18:57:37.540Z,6.65
2018-05-26T19:00:10.005Z,6.40
2018-05-26T19:02:43.785Z,6.07
2018-05-26T19:05:16.374Z,6.50
2018-05-26T19:07:49.005Z,6.55
2018-05-26T19:10:21.681Z,6.82
2018-05-26T19:12:54.859Z,6.45
2018-05-26T19:15:27.468Z,6.53
2018-05-26T19:18:00.039Z,6.70
2018-05-26T19:20:32.938Z,6.57
2018-05-26T19:23:05.569Z,6.10
2018-05-26T19:25:38.870Z,5.97
2018-05-26T19:28:11.609Z,6.40
2018-05-26T19:30:44.429Z,6.57
2018-05-26T19:33:17.234Z,6.45
2018-05-26T19:35:49.802Z,6.60
2018-05-26T19:38:22.661Z,6.90
2018-05-26T19:40:55.721Z,7.12
2018-05-26T19:43:28.130Z,6.55
2018-05-26T19:46:00.744Z,6.97
2018-05-26T19:48:36.352Z,7.05
2018-05-26T19:51:08.795Z,7.60
2018-05-26T19:53:41.529Z,7.28
2018-05-26T19:56:14.404Z,7.15
2018-05-26T19:58:48.598Z,7.85
2018-05-26T20:01:21.341Z,7.30
2018-05-26T20:03:54.140Z,7.62
2018-05-26T20:06:26.881Z,7.72
2018-05-26T20:08:59.514Z,7.85
2018-05-26T20:11:32.246Z,7.62
2018-05-26T20:14:05.003Z,7.87
2018-05-26T20:16:37.627Z,7.87
2018-05-26T20:19:10.287Z,7.40
2018-05-26T20:21:42.859Z,7.80
2018-05-26T20:24:15.634Z,7.25
2018-05-26T20:26:48.696Z,7.80
2018-05-26T20:29:21.244Z,7.68
2018-05-26T20:31:53.854Z,7.35
2018-05-26T20:34:27.065Z,8.05
2018-05-26T20:36:59.912Z,7.30
2018-05-26T20:39:32.493Z,7.20
2018-05-26T20:42:05.363Z,7.28
2018-05-26T20:44:37.898Z,7.65
2018-05-26T20:47:11.040Z,7.35
2018-05-26T20:49:43.520Z,7.47
2018-05-26T20:52:16.332Z,7.87
2018-05-26T20:54:48.831Z,7.82
2018-05-26T20:57:21.471Z,7.82
2018-05-26T20:59:54.230Z,7.28
2018-05-26T21:02:26.878Z,7.18
2018-05-26T21:04:59.469Z,7.72
2018-05-26T21:07:33.109Z,7.80
2018-05-26T21:10:05.730Z,8.10
2018-05-26T21:12:38.390Z,7.68
2018-05-26T21:15:11.223Z,7.28
2018-05-26T21:17:43.677Z,7.90
2018-05-26T21:20:16.404Z,8.15
2018-05-26T21:22:49.095Z,8.10
2018-05-26T21:25:22.456Z,7.97
2018-05-26T21:28:02.550Z,7.90
2018-05-26T21:30:36.609Z,7.30
2018-05-26T21:33:09.342Z,8.68
2018-05-26T21:35:42.233Z,8.48
2018-05-26T21:38:14.805Z,8.65
2018-05-26T21:40:47.516Z,8.45
2018-05-26T21:43:20.163Z,8.07
2018-05-26T21:45:53.622Z,8.20
2018-05-26T21:48:26.366Z,8.57
2018-05-26T21:53:39.658Z,9.35
2018-05-26T21:56:12.296Z,9.48
2018-05-26T21:58:44.835Z,9.45
2018-05-26T22:01:17.500Z,9.10
2018-05-26T22:03:49.960Z,9.48
2018-05-26T22:09:01.145Z,9.13
2018-05-26T22:11:33.861Z,8.75
2018-05-26T22:14:06.340Z,8.70
2018-05-26T22:16:38.791Z,8.68
2018-05-26T22:19:11.226Z,8.75
2018-05-26T22:21:43.855Z,8.95
2018-05-26T22:24:16.350Z,9.40
2018-05-26T22:26:49.014Z,9.27
2018-05-26T22:29:21.414Z,9.05
2018-05-26T22:31:54.017Z,9.70
2018-05-26T22:34:26.525Z,9.00
2018-05-26T22:36:59.196Z,8.95
2018-05-26T22:39:31.839Z,9.57
2018-05-26T22:42:04.472Z,8.90
2018-05-26T22:44:36.907Z,9.70
2018-05-26T22:47:09.411Z,8.60
2018-05-26T22:49:42.637Z,8.30
2018-05-26T22:52:15.198Z,8.63
2018-05-26T22:54:48.179Z,8.63
2018-05-26T22:57:25.309Z,8.23
2018-05-26T22:59:57.765Z,7.73
2018-05-26T23:02:30.214Z,8.02
2018-05-26T23:05:02.840Z,8.55
2018-05-26T23:07:35.775Z,7.78
2018-05-26T23:10:08.346Z,7.35
2018-05-26T23:12:45.231Z,7.12
2018-05-26T23:15:18.019Z,7.03
2018-05-26T23:17:50.518Z,7.00
2018-05-26T23:20:22.957Z,7.22
2018-05-26T23:22:55.734Z,6.35
2018-05-26T23:25:28.290Z,6.45
2018-05-26T23:28:01.427Z,6.30
2018-05-26T23:30:34.761Z,6.90
2018-05-26T23:33:07.324Z,6.32
2018-05-26T23:35:43.946Z,6.30
2018-05-26T23:38:17.394Z,5.78
2018-05-26T23:40:50.255Z,6.20
2018-05-26T23:43:26.385Z,5.65
2018-05-26T23:45:58.869Z,5.62
2018-05-26T23:48:32.786Z,5.78
2018-05-26T23:51:05.831Z,6.07
2018-05-26T23:53:38.740Z,5.70
2018-05-26T23:56:11.219Z,5.90
2018-05-26T23:58:48.135Z,5.90
